createdAt,value
2022-08-20T00:00:24.515Z,96272.56
2022-08-20T00:03:00.295Z,96273.88
2022-08-20T00:05:30.387Z,96277.25
2022-08-20T00:07:58.187Z,96279.31
2022-08-20T00:10:25.476Z,96275.72
2022-08-20T00:12:52.054Z,96272.34
2022-08-20T00:15:21.495Z,96273.72
2022-08-20T00:17:49.892Z,96273.25
2022-08-20T00:20:18.022Z,96276.25
2022-08-20T00:22:47.382Z,96279.66
2022-08-20T00:25:14.247Z,96279.34
2022-08-20T00:27:40.897Z,96280.84
2022-08-20T00:30:09.759Z,96279.53
2022-08-20T00:33:08.654Z,96287.03
2022-08-20T00:35:37.431Z,96282.16
2022-08-20T00:38:04.082Z,96274.53
2022-08-20T00:40:40.884Z,96269.88
2022-08-20T00:43:28.490Z,96277.84
2022-08-20T00:45:56.607Z,96273.72
2022-08-20T00:48:28.203Z,96269.81
2022-08-20T00:51:00.872Z,96269.69
2022-08-20T00:53:28.207Z,96264.09
2022-08-20T00:55:55.304Z,96271.25
2022-08-20T00:58:21.249Z,96260.56
2022-08-20T01:00:48.902Z,96270.97
2022-08-20T01:03:17.089Z,96273.69
2022-08-20T01:05:47.755Z,96274.53
2022-08-20T01:08:16.109Z,96272.34
2022-08-20T01:10:44.576Z,96273.94
2022-08-20T01:13:13.799Z,96277.69
2022-08-20T01:15:45.944Z,96270.91
2022-08-20T01:18:20.083Z,96271.91
2022-08-20T01:20:51.086Z,96267.75
2022-08-20T01:23:31.924Z,96268.44
2022-08-20T01:26:12.281Z,96275.81
2022-08-20T01:28:52.757Z,96278.84
2022-08-20T01:31:24.856Z,96278.44
2022-08-20T01:33:52.287Z,96276.22
2022-08-20T01:36:23.891Z,96286.09
2022-08-20T01:38:54.025Z,96282.63
2022-08-20T01:41:43.111Z,96288.41
2022-08-20T01:44:13.867Z,96284.06
2022-08-20T01:46:45.346Z,96279.66
2022-08-20T01:49:23.169Z,96293.06
2022-08-20T01:51:51.741Z,96295.22
2022-08-20T01:54:17.727Z,96290.06
2022-08-20T01:56:53.723Z,96298.84
2022-08-20T01:59:19.792Z,96292.50
2022-08-20T02:01:46.732Z,96293.06
2022-08-20T02:04:15.424Z,96295.72
2022-08-20T02:06:56.351Z,96292.16
2022-08-20T02:09:29.046Z,96284.44
2022-08-20T02:11:56.763Z,96291.59
2022-08-20T02:14:23.697Z,96285.69
2022-08-20T02:16:55.298Z,96286.97
2022-08-20T02:19:39.611Z,96283.81
2022-08-20T02:22:17.064Z,96290.00
2022-08-20T02:24:43.439Z,96289.31
2022-08-20T02:27:09.504Z,96290.56
2022-08-20T02:29:35.561Z,96279.53
2022-08-20T02:32:25.030Z,96291.50
2022-08-20T02:34:48.840Z,96292.47
2022-08-20T02:37:17.637Z,96297.78
2022-08-20T02:39:45.278Z,96297.78
2022-08-20T02:42:11.803Z,96300.09
2022-08-20T02:44:39.041Z,96299.06
2022-08-20T02:47:06.399Z,96292.38
2022-08-20T02:49:32.358Z,96297.09
2022-08-20T02:51:58.472Z,96296.09
2022-08-20T02:54:24.471Z,96288.91
2022-08-20T02:56:51.499Z,96290.44
2022-08-20T02:59:19.746Z,96296.28
2022-08-20T03:01:47.711Z,96297.25
2022-08-20T03:04:26.075Z,96302.06
2022-08-20T03:06:52.196Z,96297.09
2022-08-20T03:09:18.356Z,96290.69
2022-08-20T03:11:44.799Z,96298.16
2022-08-20T03:14:11.087Z,96291.84
2022-08-20T03:16:37.005Z,96289.44
2022-08-20T03:19:02.884Z,96293.69
2022-08-20T03:21:28.952Z,96280.34
2022-08-20T03:23:55.093Z,96277.44
2022-08-20T03:26:21.214Z,96280.97
2022-08-20T03:28:47.190Z,96277.41
2022-08-20T03:31:16.131Z,96271.66
2022-08-20T03:33:53.374Z,96279.59
2022-08-20T03:36:22.263Z,96278.50
2022-08-20T03:38:56.879Z,96281.78
2022-08-20T03:41:23.236Z,96285.22
2022-08-20T03:43:49.345Z,96293.38
2022-08-20T03:46:23.064Z,96286.69
2022-08-20T03:48:59.534Z,96287.41
2022-08-20T03:51:28.936Z,96282.38
2022-08-20T03:53:54.890Z,96281.56
2022-08-20T03:56:20.847Z,96288.03
2022-08-20T03:58:46.991Z,96292.53
2022-08-20T04:01:45.335Z,96292.09
2022-08-20T04:03:59.854Z,96297.31
2022-08-20T04:06:28.530Z,96292.59
2022-08-20T04:08:55.970Z,96279.78
2022-08-20T04:11:23.517Z,96288.34
2022-08-20T04:13:49.445Z,96295.25
2022-08-20T04:16:15.691Z,96293.16
2022-08-20T04:18:42.921Z,96294.75
2022-08-20T04:21:24.596Z,96289.44
2022-08-20T04:23:55.940Z,96292.06
2022-08-20T04:26:21.879Z,96289.09
2022-08-20T04:28:49.284Z,96294.44
2022-08-20T04:31:17.788Z,96294.25
2022-08-20T04:33:45.288Z,96298.78
2022-08-20T04:36:11.416Z,96302.66
2022-08-20T04:38:49.674Z,96304.34
2022-08-20T04:41:23.072Z,96317.13
2022-08-20T04:43:52.957Z,96311.97
2022-08-20T04:46:20.346Z,96318.88
2022-08-20T04:48:48.684Z,96326.47
2022-08-20T04:51:15.249Z,96319.47
2022-08-20T04:53:42.357Z,96333.31
2022-08-20T04:56:08.720Z,96337.34
2022-08-20T04:58:37.460Z,96339.13
2022-08-20T05:01:07.553Z,96336.19
2022-08-20T05:03:35.204Z,96335.91
2022-08-20T05:06:01.175Z,96339.44
2022-08-20T05:08:28.610Z,96337.78
2022-08-20T05:11:32.731Z,96334.50
2022-08-20T05:13:42.211Z,96339.13
2022-08-20T05:16:09.174Z,96340.91
2022-08-20T05:18:35.180Z,96342.19
2022-08-20T05:21:05.216Z,96344.13
2022-08-20T05:23:35.566Z,96341.41
2022-08-20T05:26:06.714Z,96342.75
2022-08-20T05:28:36.843Z,96336.47
2022-08-20T05:31:19.866Z,96330.56
2022-08-20T05:33:45.812Z,96338.53
2022-08-20T05:36:11.995Z,96336.66
2022-08-20T05:38:41.374Z,96336.38
2022-08-20T05:41:27.715Z,96339.03
2022-08-20T05:44:01.654Z,96338.31
2022-08-20T05:46:30.554Z,96336.25
2022-08-20T05:48:59.538Z,96340.88
2022-08-20T05:51:26.981Z,96337.19
2022-08-20T05:53:52.908Z,96338.03
2022-08-20T05:56:18.828Z,96344.63
2022-08-20T05:58:47.636Z,96343.53
2022-08-20T06:01:17.205Z,96339.66
2022-08-20T06:04:01.505Z,96345.47
2022-08-20T06:06:45.156Z,96342.63
2022-08-20T06:09:13.446Z,96347.41
2022-08-20T06:11:39.346Z,96342.66
2022-08-20T06:14:05.306Z,96346.81
2022-08-20T06:16:31.484Z,96339.69
2022-08-20T06:18:58.211Z,96346.09
2022-08-20T06:21:24.361Z,96343.63
2022-08-20T06:23:57.094Z,96349.28
2022-08-20T06:26:30.569Z,96339.81
2022-08-20T06:28:58.442Z,96348.84
2022-08-20T06:31:24.479Z,96344.09
2022-08-20T06:33:50.402Z,96344.69
2022-08-20T06:36:18.900Z,96357.63
2022-08-20T06:38:45.937Z,96350.94
2022-08-20T06:41:11.900Z,96358.88
2022-08-20T06:43:37.865Z,96359.06
2022-08-20T06:46:04.090Z,96361.56
2022-08-20T06:48:30.525Z,96365.28
2022-08-20T06:50:57.080Z,96366.69
2022-08-20T06:53:23.015Z,96361.53
2022-08-20T06:55:54.205Z,96363.81
2022-08-20T06:58:35.754Z,96359.47
2022-08-20T07:01:10.237Z,96368.38
2022-08-20T07:03:42.252Z,96374.78
2022-08-20T07:06:21.382Z,96378.63
2022-08-20T07:08:47.346Z,96377.97
2022-08-20T07:11:13.274Z,96369.94
2022-08-20T07:13:40.740Z,96370.94
2022-08-20T07:16:06.810Z,96376.25
2022-08-20T07:18:32.954Z,96386.44
2022-08-20T07:20:59.005Z,96388.31
2022-08-20T07:23:25.822Z,96391.56
2022-08-20T07:25:51.974Z,96382.78
2022-08-20T07:28:21.975Z,96377.13
2022-08-20T07:31:13.219Z,96377.34
2022-08-20T07:33:41.023Z,96382.47
2022-08-20T07:36:08.365Z,96376.69
2022-08-20T07:38:35.309Z,96382.28
2022-08-20T07:41:12.647Z,96389.47
2022-08-20T07:43:39.607Z,96381.69
2022-08-20T07:46:06.968Z,96383.16
2022-08-20T07:48:34.022Z,96382.59
2022-08-20T07:51:03.543Z,96380.94
2022-08-20T07:53:35.571Z,96390.47
2022-08-20T07:56:05.268Z,96398.38
2022-08-20T07:58:33.649Z,96393.84
2022-08-20T08:00:59.949Z,96392.44
2022-08-20T08:03:40.999Z,96396.19
2022-08-20T08:06:13.574Z,96403.19
2022-08-20T08:08:41.156Z,96398.59
2022-08-20T08:11:07.974Z,96398.78
2022-08-20T08:13:38.656Z,96395.56
2022-08-20T08:16:06.096Z,96394.78
2022-08-20T08:18:49.786Z,96406.06
2022-08-20T08:21:17.108Z,96399.56
2022-08-20T08:23:43.883Z,96406.06
2022-08-20T08:26:16.293Z,96399.88
2022-08-20T08:28:45.647Z,96408.97
2022-08-20T08:31:11.707Z,96404.38
2022-08-20T08:33:40.002Z,96406.94
2022-08-20T08:36:09.105Z,96403.72
2022-08-20T08:38:37.467Z,96403.97
2022-08-20T08:41:36.873Z,96408.25
2022-08-20T08:44:21.151Z,96406.31
2022-08-20T08:46:50.480Z,96414.63
2022-08-20T08:49:22.465Z,96412.38
2022-08-20T08:51:55.497Z,96420.59
2022-08-20T08:54:26.836Z,96412.13
2022-08-20T08:56:53.904Z,96419.75
2022-08-20T08:59:21.832Z,96422.34
2022-08-20T09:01:57.145Z,96428.94
2022-08-20T09:04:32.000Z,96426.81
2022-08-20T09:06:58.855Z,96433.66
2022-08-20T09:09:29.096Z,96439.09
2022-08-20T09:12:03.783Z,96441.63
2022-08-20T09:14:29.709Z,96441.13
2022-08-20T09:16:55.684Z,96438.44
2022-08-20T09:19:21.639Z,96440.47
2022-08-20T09:21:47.849Z,96439.72
2022-08-20T09:24:13.872Z,96440.44
2022-08-20T09:26:39.878Z,96435.97
2022-08-20T09:29:05.823Z,96437.56
2022-08-20T09:31:32.374Z,96435.53
2022-08-20T09:33:58.459Z,96441.00
2022-08-20T09:36:31.810Z,96432.28
2022-08-20T09:38:59.221Z,96429.44
2022-08-20T09:41:25.160Z,96441.81
2022-08-20T09:43:51.078Z,96440.31
2022-08-20T09:46:17.020Z,96447.13
2022-08-20T09:48:42.969Z,96433.56
2022-08-20T09:51:09.026Z,96444.50
2022-08-20T09:53:35.258Z,96444.19
2022-08-20T09:56:01.272Z,96444.50
2022-08-20T09:58:49.939Z,96440.19
2022-08-20T10:01:18.188Z,96449.09
2022-08-20T10:03:48.074Z,96453.78
2022-08-20T10:06:15.949Z,96454.31
2022-08-20T10:08:42.910Z,96442.84
2022-08-20T10:11:08.975Z,96445.44
2022-08-20T10:13:34.935Z,96448.53
2022-08-20T10:16:00.865Z,96461.97
2022-08-20T10:18:26.816Z,96457.75
2022-08-20T10:20:53.189Z,96457.56
2022-08-20T10:23:19.306Z,96464.88
2022-08-20T10:25:45.259Z,96456.88
2022-08-20T10:28:11.513Z,96460.28
2022-08-20T10:30:37.941Z,96456.22
2022-08-20T10:33:03.967Z,96470.06
2022-08-20T10:35:30.070Z,96468.94
2022-08-20T10:37:56.253Z,96473.75
2022-08-20T10:40:22.445Z,96474.19
2022-08-20T10:42:48.452Z,96464.41
2022-08-20T10:45:19.649Z,96457.47
2022-08-20T10:47:46.178Z,96470.22
2022-08-20T10:50:15.571Z,96462.53
2022-08-20T10:52:41.628Z,96468.75
2022-08-20T10:55:08.371Z,96479.97
2022-08-20T10:57:34.483Z,96464.28
2022-08-20T11:00:00.830Z,96471.00
2022-08-20T11:02:27.983Z,96469.94
2022-08-20T11:04:54.360Z,96477.44
2022-08-20T11:07:50.773Z,96478.91
2022-08-20T11:10:13.963Z,96484.13
2022-08-20T11:12:40.356Z,96485.53
2022-08-20T11:15:09.419Z,96484.19
2022-08-20T11:17:39.320Z,96483.63
2022-08-20T11:20:07.302Z,96482.28
2022-08-20T11:22:34.259Z,96484.16
2022-08-20T11:25:00.282Z,96486.66
2022-08-20T11:27:39.264Z,96491.00
2022-08-20T11:30:08.914Z,96494.38
2022-08-20T11:32:35.287Z,96489.81
2022-08-20T11:35:13.826Z,96508.44
2022-08-20T11:37:47.508Z,96491.97
2022-08-20T11:40:13.526Z,96491.41
2022-08-20T11:42:53.391Z,96497.81
2022-08-20T11:45:25.499Z,96486.72
2022-08-20T11:47:51.517Z,96486.66
2022-08-20T11:50:20.183Z,96493.13
2022-08-20T11:52:46.516Z,96499.91
2022-08-20T11:55:13.876Z,96498.22
2022-08-20T11:57:45.348Z,96499.09
2022-08-20T12:00:17.897Z,96496.09
2022-08-20T12:02:44.147Z,96492.63
2022-08-20T12:05:11.462Z,96494.81
2022-08-20T12:07:38.086Z,96499.72
2022-08-20T12:10:06.057Z,96501.47
2022-08-20T12:12:32.422Z,96496.88
2022-08-20T12:14:58.473Z,96499.78
2022-08-20T12:17:27.681Z,96506.31
2022-08-20T12:19:55.737Z,96498.16
2022-08-20T12:22:24.669Z,96502.78
2022-08-20T12:24:52.738Z,96517.84
2022-08-20T12:27:22.479Z,96503.84
2022-08-20T12:29:52.631Z,96505.22
2022-08-20T12:32:21.301Z,96503.38
2022-08-20T12:34:47.848Z,96501.75
2022-08-20T12:37:17.150Z,96494.50
2022-08-20T12:39:45.533Z,96498.53
2022-08-20T12:42:11.849Z,96495.72
2022-08-20T12:44:38.583Z,96501.38
2022-08-20T12:47:10.890Z,96501.72
2022-08-20T12:49:38.189Z,96494.75
2022-08-20T12:52:04.860Z,96497.06
2022-08-20T12:54:31.193Z,96500.31
2022-08-20T12:56:57.185Z,96498.41
2022-08-20T12:59:26.130Z,96511.63
2022-08-20T13:01:53.710Z,96503.84
2022-08-20T13:04:20.237Z,96504.41
2022-08-20T13:06:46.679Z,96500.31
2022-08-20T13:09:13.826Z,96492.06
2022-08-20T13:11:40.561Z,96491.56
2022-08-20T13:14:07.114Z,96495.53
2022-08-20T13:16:33.233Z,96485.91
2022-08-20T13:18:59.379Z,96481.50
2022-08-20T13:21:25.690Z,96481.63
2022-08-20T13:23:51.654Z,96480.78
2022-08-20T13:26:17.674Z,96481.19
2022-08-20T13:28:43.677Z,96486.00
2022-08-20T13:31:09.811Z,96483.63
2022-08-20T13:33:35.754Z,96474.47
2022-08-20T13:36:02.607Z,96479.22
2022-08-20T13:38:30.508Z,96478.47
2022-08-20T13:40:56.458Z,96477.72
2022-08-20T13:43:22.373Z,96476.50
2022-08-20T13:45:48.398Z,96477.06
2022-08-20T13:48:15.232Z,96479.66
2022-08-20T13:50:42.269Z,96479.97
2022-08-20T13:53:08.171Z,96481.69
2022-08-20T13:55:34.135Z,96481.53
2022-08-20T13:58:03.917Z,96478.63
2022-08-20T14:00:32.631Z,96480.47
2022-08-20T14:03:03.444Z,96479.97
2022-08-20T14:05:30.073Z,96473.88
2022-08-20T14:08:03.916Z,96471.91
2022-08-20T14:10:32.157Z,96472.78
2022-08-20T14:12:59.771Z,96474.00
2022-08-20T14:15:25.771Z,96476.44
2022-08-20T14:17:54.433Z,96476.19
2022-08-20T14:20:23.472Z,96470.66
2022-08-20T14:22:49.329Z,96474.81
2022-08-20T14:25:17.680Z,96473.13
2022-08-20T14:27:43.942Z,96473.47
2022-08-20T14:30:16.271Z,96475.09
2022-08-20T14:32:42.126Z,96475.16
2022-08-20T14:35:09.286Z,96473.53
2022-08-20T14:37:38.744Z,96473.28
2022-08-20T14:40:11.803Z,96469.34
2022-08-20T14:42:37.795Z,96472.84
2022-08-20T14:45:05.766Z,96473.44
2022-08-20T14:47:34.938Z,96465.41
2022-08-20T14:50:14.089Z,96465.00
2022-08-20T14:52:41.115Z,96470.47
2022-08-20T14:55:12.244Z,96472.16
2022-08-20T14:57:39.180Z,96467.09
2022-08-20T15:00:09.269Z,96470.25
2022-08-20T15:02:35.990Z,96457.66
2022-08-20T15:05:03.842Z,96455.63
2022-08-20T15:07:36.631Z,96464.50
2022-08-20T15:10:09.023Z,96462.44
2022-08-20T15:12:34.919Z,96467.94
2022-08-20T15:15:13.403Z,96457.03
2022-08-20T15:17:47.486Z,96461.09
2022-08-20T15:20:20.338Z,96462.38
2022-08-20T15:22:48.028Z,96468.00
2022-08-20T15:25:15.862Z,96460.91
2022-08-20T15:27:41.896Z,96466.97
2022-08-20T15:30:13.673Z,96474.69
2022-08-20T15:32:39.668Z,96462.94
2022-08-20T15:35:07.304Z,96463.34
2022-08-20T15:37:33.204Z,96460.34
2022-08-20T15:40:06.690Z,96461.00
2022-08-20T15:42:32.591Z,96460.47
2022-08-20T15:44:58.565Z,96464.94
2022-08-20T15:47:26.803Z,96466.44
2022-08-20T15:50:04.482Z,96466.22
2022-08-20T15:52:42.229Z,96464.34
2022-08-20T15:55:12.644Z,96466.31
2022-08-20T15:57:59.908Z,96468.25
2022-08-20T16:00:33.668Z,96473.19
2022-08-20T16:03:38.094Z,96475.34
2022-08-20T16:06:17.821Z,96477.84
2022-08-20T16:08:49.385Z,96468.69
2022-08-20T16:11:36.456Z,96482.84
2022-08-20T16:14:19.302Z,96474.38
2022-08-20T16:17:01.053Z,96475.09
2022-08-20T16:19:34.245Z,96473.16
2022-08-20T16:22:03.291Z,96468.13
2022-08-20T16:24:29.652Z,96466.69
2022-08-20T16:27:07.075Z,96469.78
2022-08-20T16:29:38.698Z,96465.09
2022-08-20T16:32:17.059Z,96475.69
2022-08-20T16:35:06.461Z,96465.19
2022-08-20T16:37:32.217Z,96473.16
2022-08-20T16:40:03.285Z,96469.38
2022-08-20T16:42:36.945Z,96473.00
2022-08-20T16:45:06.576Z,96479.84
2022-08-20T16:47:40.089Z,96475.09
2022-08-20T16:50:16.025Z,96477.28
2022-08-20T16:55:11.412Z,96484.41
2022-08-20T16:57:37.353Z,96479.97
2022-08-20T17:00:20.380Z,96489.66
2022-08-20T17:02:54.765Z,96486.47
2022-08-20T17:05:23.074Z,96484.44
2022-08-20T17:07:58.438Z,96481.97
2022-08-20T17:10:27.423Z,96485.59
2022-08-20T17:13:14.253Z,96487.03
2022-08-20T17:15:43.154Z,96491.47
2022-08-20T17:18:24.993Z,96491.44
2022-08-20T17:20:52.048Z,96488.75
2022-08-20T17:23:20.317Z,96480.03
2022-08-20T17:25:57.385Z,96485.91
2022-08-20T17:28:23.280Z,96480.50
2022-08-20T17:30:50.335Z,96472.56
2022-08-20T17:33:19.047Z,96481.44
2022-08-20T17:35:52.138Z,96479.31
2022-08-20T17:38:31.456Z,96482.06
2022-08-20T17:41:02.939Z,96483.47
2022-08-20T17:43:32.654Z,96488.06
2022-08-20T17:46:02.976Z,96482.88
2022-08-20T17:48:37.483Z,96483.31
2022-08-20T17:51:15.825Z,96487.88
2022-08-20T17:53:43.442Z,96489.09
2022-08-20T17:56:32.324Z,96490.38
2022-08-20T17:59:40.909Z,96492.09
2022-08-20T18:02:12.677Z,96493.41
2022-08-20T18:04:38.609Z,96498.38
2022-08-20T18:07:10.349Z,96501.69
2022-08-20T18:09:46.600Z,96498.41
2022-08-20T18:12:33.606Z,96498.50
2022-08-20T18:15:03.289Z,96506.63
2022-08-20T18:17:29.282Z,96514.97
2022-08-20T18:20:10.565Z,96516.97
2022-08-20T18:22:50.486Z,96515.69
2022-08-20T18:25:32.935Z,96519.06
2022-08-20T18:28:25.670Z,96515.44
2022-08-20T18:31:03.233Z,96519.69
2022-08-20T18:33:47.293Z,96523.22
2022-08-20T18:36:19.115Z,96521.94
2022-08-20T18:39:09.105Z,96527.31
2022-08-20T18:41:57.983Z,96524.47
2022-08-20T18:44:44.034Z,96522.22
2022-08-20T18:47:23.900Z,96521.13
2022-08-20T18:50:17.030Z,96523.41
2022-08-20T18:53:16.073Z,96525.28
2022-08-20T18:55:46.001Z,96526.00
2022-08-20T18:58:15.110Z,96526.00
2022-08-20T19:00:47.559Z,96525.09
2022-08-20T19:03:34.169Z,96535.88
2022-08-20T19:06:08.131Z,96538.19
2022-08-20T19:08:42.478Z,96530.75
2022-08-20T19:11:36.669Z,96538.16
2022-08-20T19:14:30.594Z,96533.66
2022-08-20T19:17:03.749Z,96533.91
2022-08-20T19:19:32.827Z,96537.25
2022-08-20T19:22:01.421Z,96534.50
2022-08-20T19:24:34.589Z,96533.78
2022-08-20T19:27:08.542Z,96539.13
2022-08-20T19:29:49.012Z,96540.59
2022-08-20T19:32:27.802Z,96535.59
2022-08-20T19:34:57.153Z,96534.06
2022-08-20T19:37:44.324Z,96533.72
2022-08-20T19:40:28.803Z,96534.81
2022-08-20T19:42:57.634Z,96536.34
2022-08-20T19:45:36.602Z,96536.47
2022-08-20T19:48:08.173Z,96534.63
2022-08-20T19:50:43.820Z,96535.75
2022-08-20T19:53:31.244Z,96539.69
2022-08-20T19:56:04.259Z,96534.56
2022-08-20T19:58:32.243Z,96532.63
2022-08-20T20:01:00.499Z,96529.31
2022-08-20T20:03:32.781Z,96534.84
2022-08-20T20:06:16.160Z,96530.47
2022-08-20T20:08:56.552Z,96533.84
2022-08-20T20:11:48.830Z,96530.63
2022-08-20T20:14:17.410Z,96528.56
2022-08-20T20:16:44.947Z,96525.72
2022-08-20T20:19:28.639Z,96529.44
2022-08-20T20:22:06.249Z,96524.81
2022-08-20T20:24:50.063Z,96526.78
2022-08-20T20:27:23.208Z,96525.44
2022-08-20T20:29:56.888Z,96531.75
2022-08-20T20:32:24.341Z,96530.78
2022-08-20T20:34:56.167Z,96526.53
2022-08-20T20:37:46.631Z,96529.81
2022-08-20T20:40:53.481Z,96535.13
2022-08-20T20:43:41.508Z,96532.97
2022-08-20T20:46:20.507Z,96528.13
2022-08-20T20:48:56.312Z,96523.84
2022-08-20T20:51:22.170Z,96524.66
2022-08-20T20:53:54.300Z,96521.47
2022-08-20T20:56:55.195Z,96532.13
2022-08-20T20:59:21.101Z,96520.38
2022-08-20T21:01:49.914Z,96525.56
2022-08-20T21:04:19.199Z,96514.81
2022-08-20T21:06:45.386Z,96525.28
2022-08-20T21:09:11.592Z,96518.25
2022-08-20T21:11:37.500Z,96517.06
2022-08-20T21:14:03.437Z,96512.47
2022-08-20T21:16:29.428Z,96520.34
2022-08-20T21:18:55.654Z,96512.63
2022-08-20T21:21:21.569Z,96517.03
2022-08-20T21:23:47.650Z,96519.41
2022-08-20T21:26:13.554Z,96521.56
2022-08-20T21:28:39.522Z,96519.72
2022-08-20T21:31:05.619Z,96527.97
2022-08-20T21:33:31.506Z,96516.81
2022-08-20T21:35:57.326Z,96528.84
2022-08-20T21:38:23.663Z,96530.97
2022-08-20T21:40:49.838Z,96519.66
2022-08-20T21:43:15.938Z,96514.88
2022-08-20T21:45:44.681Z,96516.44
2022-08-20T21:48:10.856Z,96525.31
2022-08-20T21:50:36.992Z,96514.47
2022-08-20T21:53:03.179Z,96519.22
2022-08-20T21:55:40.048Z,96516.34
2022-08-20T21:58:06.413Z,96515.31
2022-08-20T22:00:47.500Z,96515.09
2022-08-20T22:03:14.535Z,96518.03
2022-08-20T22:05:41.253Z,96516.38
2022-08-20T22:08:07.568Z,96518.84
2022-08-20T22:10:34.023Z,96526.78
2022-08-20T22:12:59.928Z,96520.13
2022-08-20T22:15:25.919Z,96522.50
2022-08-20T22:17:52.231Z,96530.53
2022-08-20T22:20:18.136Z,96529.50
2022-08-20T22:22:46.003Z,96534.09
2022-08-20T22:25:12.801Z,96533.06
2022-08-20T22:27:39.361Z,96527.19
2022-08-20T22:30:05.952Z,96532.56
2022-08-20T22:32:33.845Z,96530.47
2022-08-20T22:35:17.651Z,96523.00
2022-08-20T22:37:43.718Z,96529.13
2022-08-20T22:40:10.042Z,96527.47
2022-08-20T22:42:35.845Z,96524.09
2022-08-20T22:45:01.676Z,96524.94
2022-08-20T22:47:28.650Z,96524.94
2022-08-20T22:49:55.999Z,96523.59
2022-08-20T22:52:24.085Z,96521.47
2022-08-20T22:54:52.688Z,96528.72
2022-08-20T22:57:20.469Z,96513.06
2022-08-20T22:59:53.192Z,96518.66
2022-08-20T23:02:21.351Z,96518.44
2022-08-20T23:04:47.185Z,96517.38
2022-08-20T23:07:14.122Z,96517.69
2022-08-20T23:09:41.687Z,96512.91
2022-08-20T23:12:08.204Z,96518.75
2022-08-20T23:14:34.375Z,96517.97
2022-08-20T23:17:13.447Z,96520.09
2022-08-20T23:19:40.728Z,96516.88
2022-08-20T23:22:07.530Z,96521.69
2022-08-20T23:24:34.345Z,96520.31
2022-08-20T23:27:01.126Z,96516.59
2022-08-20T23:29:28.393Z,96519.53
2022-08-20T23:31:55.750Z,96520.34
2022-08-20T23:34:22.091Z,96515.78
2022-08-20T23:36:48.633Z,96509.66
2022-08-20T23:39:14.441Z,96507.78
2022-08-20T23:41:47.546Z,96516.88
2022-08-20T23:44:25.318Z,96508.59
2022-08-20T23:46:54.815Z,96509.88
2022-08-20T23:49:20.723Z,96510.47
2022-08-20T23:51:46.506Z,96509.66
2022-08-20T23:54:12.311Z,96509.91
2022-08-20T23:56:38.232Z,96511.00
2022-08-20T23:59:05.046Z,96510.50
